x

8774770 - Rockport, Tx (rcpt2) Weather Station

2:18pm - Wed 4th Mar 2015 All times are CST. -6 hours from GMT.

  • Wind
    6mph, 8mph gusts
  • Sea Temp 59°f
  • Air Temp 63°f
  • Sea Pressure 1008.2mb
  • 8774770 - Rockport, Tx
  • 8774770 - Rockport, Tx

More Historic Weather Station data

Upgrade to MSW Pro to gain access to the past 30 days of data for over 8000 Wavebouys and Weather Stations around the globe.

Join Pro

Comparision Forecast

View Surf forecast
   
Wed 03/04 2:18pm 6 8 mph 1008.2mb 59f 63f
2:12pm 6 8 mph 1008.3mb 59f 63f
2:06pm 6 8 mph 1008.4mb 59f 63f
2:00pm 7 9 mph 1008.5mb 59f 63f
1:54pm 7 9 mph 1008.7mb 59f 63f
1:48pm 8 10 mph 1008.7mb 59f 64f
1:42pm 9 11 mph 1008.9mb 59f 64f
1:36pm 10 14 mph 1008.8mb 59f 64f
1:30pm 13 14 mph 1008.9mb 59f 65f
1:24pm 11 14 mph 1008.9mb 59f 65f
1:18pm 10 13 mph 1009.1mb 59f 64f
1:12pm 10 11 mph 1009.2mb 59f 64f
1:06pm 10 14 mph 1009.2mb 59f 65f
1:00pm 14 17 mph 1009.3mb 59f 65f
12:54pm 11 14 mph 1009.4mb 59f 65f
12:48pm 10 14 mph 1009.6mb 59f 65f
12:42pm 10 14 mph 1009.7mb 59f 65f
12:36pm 9 11 mph 1009.8mb 59f 65f
12:30pm 8 11 mph 1010.1mb 59f 65f
12:24pm 10 13 mph 1010.3mb 59f 64f
12:18pm 9 11 mph 1010.4mb 59f 64f
12:12pm 9 11 mph 1010.6mb 59f 65f
12:06pm 8 14 mph 1010.5mb 58f 66f
12:00pm 9 13 mph 1010.6mb 58f 65f
11:54am 9 11 mph 1010.7mb 58f 65f
11:48am 7 10 mph 1010.9mb 58f 65f
11:42am 8 11 mph 1011mb 58f 65f
11:36am 9 11 mph 1011.1mb 58f 65f
11:30am 9 10 mph 1011.2mb 58f 64f
11:24am 8 9 mph 1011.3mb 58f 64f
11:18am 8 10 mph 1011.3mb 58f -
11:12am 8 11 mph 1011.3mb 58f -
11:06am 10 13 mph 1011.2mb 58f -
11:00am 10 13 mph 1011.1mb 58f 64f
10:54am 8 13 mph 1011mb 58f 64f
10:48am 8 10 mph 1010.9mb 58f 64f
10:42am 8 11 mph 1011mb 58f 64f
10:36am 8 11 mph 1011.2mb 58f 64f
10:30am 8 11 mph 1011.2mb 58f 63f
10:24am 9 13 mph 1011.2mb 58f 63f
10:18am 9 13 mph 1011.2mb 58f 63f
10:12am 10 13 mph 1011.1mb 58f 64f
10:06am 9 14 mph 1011mb 58f 64f
10:00am 9 11 mph 1011.1mb 58f 63f
9:54am 7 8 mph 1011mb 58f 63f
9:48am 6 9 mph 1011mb 58f 64f
9:42am 5 9 mph 1011.1mb 58f 64f
9:36am 7 8 mph 1010.9mb 58f 64f
9:30am 3 5 mph 1011.2mb 58f 64f
9:24am 2 3 mph 1011.2mb 58f 64f
9:18am 2 5 mph 1011.1mb 58f 64f
9:12am 2 5 mph 1011mb 58f 64f
9:06am 3 6 mph 1010.9mb 58f 63f
9:00am 3 6 mph 1010.8mb 58f 63f
8:54am 5 6 mph 1010.7mb 58f 63f
8:48am 3 6 mph 1010.7mb 58f 63f
8:42am 2 3 mph 1010.6mb 58f 63f
8:36am 2 3 mph 1010.5mb 58f 62f
8:30am 2 5 mph 1010.5mb 58f 62f
8:24am 3 5 mph 1010.5mb 58f 61f
8:18am 5 7 mph 1010.4mb 58f 62f
8:12am 7 8 mph 1010.2mb 58f 62f
8:06am 6 9 mph 1010.1mb 58f 62f
8:00am 7 10 mph 1010mb 58f 62f
7:54am 8 10 mph 1009.8mb 58f 62f
7:48am 7 9 mph 1009.7mb 58f 62f
7:42am 7 9 mph 1009.7mb 58f 62f
7:36am 6 8 mph 1009.7mb 58f 62f
7:30am 6 7 mph 1009.6mb 58f 62f
7:24am 5 8 mph 1009.5mb 58f 62f
7:18am 7 9 mph 1009.5mb 58f 62f
7:12am 7 8 mph 1009.5mb 58f 61f
7:06am 6 7 mph 1009.4mb 58f 61f
7:00am 7 9 mph 1009.3mb 58f 62f
6:54am 8 10 mph 1009.2mb 58f 62f
6:48am 6 8 mph 1009.3mb 58f 62f
6:42am 6 7 mph 1009.3mb 58f 61f
6:36am 6
mph
1009.4mb 58f 61f
6:30am 5 6 mph 1009.5mb 58f 62f
6:24am 6 7 mph 1009.4mb 58f 62f
6:18am 6 7 mph 1009.4mb 58f 62f
6:12am 6
mph
1009.5mb 58f 63f
6:06am 3 5 mph 1009.5mb 58f 63f
6:00am 3 5 mph 1009.5mb 58f 63f
5:54am 3 6 mph 1009.5mb 58f 63f
5:48am 2 3 mph 1009.5mb 58f 63f
5:42am 2 3 mph 1009.4mb 58f 63f
5:36am 1 2 mph 1009.3mb 58f 63f
5:30am 1 2 mph 1009.3mb 58f 63f
5:24am 2
mph
1009.2mb 58f 63f
5:18am 2
mph
1009.1mb 58f 63f
5:12am 2 3 mph 1009.1mb 58f 63f
5:06am 3 5 mph 1009mb 58f 63f
5:00am 3 5 mph 1009mb 58f 63f
4:54am 3 5 mph 1009mb 58f 62f
4:48am 2 5 mph 1009mb 58f 62f
4:42am 6 7 mph 1008.8mb 58f 62f
4:36am 7 9 mph 1008.7mb 58f 62f
4:30am 8 10 mph 1008.7mb 58f 62f
4:24am 3 6 mph 1008.8mb 58f 61f
4:18am 5 9 mph 1008.7mb 58f 61f
4:12am 7 9 mph 1008.6mb 58f 62f
4:06am 7 9 mph 1008.6mb 58f 62f
4:00am 6 10 mph 1008.6mb 58f 62f
3:54am 7 11 mph 1008.6mb 58f 62f
3:48am 8 11 mph 1008.5mb 58f 62f
3:42am 9 13 mph 1008.5mb 58f 62f
3:36am 10 13 mph 1008.5mb 58f 62f
3:30am 9 13 mph 1008.6mb 58f 62f
3:24am 9 11 mph 1008.6mb 58f 62f
3:18am 9 11 mph 1008.7mb 58f 61f
3:12am 10 13 mph 1008.8mb 58f 62f
3:06am 10 13 mph 1009mb 58f 62f
3:00am 9 11 mph 1009.1mb 58f 62f
2:54am 8 9 mph 1009.1mb 58f 62f
2:48am 8 10 mph 1009.1mb 58f 62f
2:42am 9 11 mph 1009.1mb 58f 62f
2:36am 9 10 mph 1009.1mb 58f 61f
2:30am 9 11 mph 1009.2mb 58f 63f
2:24am 10 13 mph 1009.2mb 58f 62f
2:18am 10 13 mph 1009.3mb 58f 63f
2:12am 8 11 mph 1009.4mb 58f 62f
2:06am 5 8 mph 1009.4mb 58f 62f
2:00am 8 9 mph 1009.6mb 58f 63f
1:54am 6 8 mph 1009.7mb 58f 62f
1:48am 6 7 mph 1009.7mb 58f 61f
1:42am 3 5 mph 1009.8mb 58f 61f
1:36am 3 7 mph 1009.8mb 58f 61f
1:30am 6 7 mph 1009.8mb 58f 61f
1:24am 5 7 mph 1009.9mb 58f 61f
1:18am 6 7 mph 1010mb 58f 61f
1:12am 7 8 mph 1010mb 58f 61f
1:06am 8 9 mph 1010mb 58f 61f
1:00am 8 9 mph 1010mb 58f 61f
12:54am 7 9 mph 1010mb 58f 61f
12:48am 6 7 mph 1010.1mb 58f 60f
12:42am 6 7 mph 1010.1mb 58f 61f
12:36am 6 7 mph 1010.2mb 58f 61f
12:30am 6 7 mph 1010.3mb 58f 62f
12:24am 6
mph
1010.4mb 58f 63f
12:18am 6
mph
1010.5mb 58f 63f
12:12am 3 5 mph 1010.6mb 58f 63f
12:06am 2
mph
1010.7mb 58f 63f
12:00am 3
mph
1010.8mb 58f 63f
Tue 03/03 11:54pm 2 3 mph 1010.8mb 58f 63f
11:48pm 2 3 mph 1010.8mb 58f 62f
11:42pm 3 5 mph 1010.8mb 58f 62f
11:36pm 3 5 mph 1010.8mb 58f 62f
11:30pm 3 5 mph 1010.8mb 58f 62f
11:24pm 3 6 mph 1010.8mb 58f 62f
11:18pm 6
mph
1010.7mb 58f 62f
11:12pm 5 6 mph 1010.7mb 58f 62f
11:06pm 5 6 mph 1010.7mb 58f 62f
11:00pm 5 6 mph 1010.8mb 58f 62f
10:54pm 6
mph
1010.8mb 58f 62f
10:48pm 5 6 mph 1010.8mb 58f 62f
10:42pm 5 7 mph 1010.8mb 58f 61f
10:36pm 5 8 mph 1010.7mb 58f 61f
10:30pm 7 9 mph 1010.6mb 58f 61f
10:24pm 9 11 mph 1010.5mb 57f 61f
10:18pm 10 11 mph 1010.4mb 58f 61f
10:12pm 10 13 mph 1010.4mb 57f 61f
10:06pm 10 13 mph 1010.5mb 57f 61f
10:00pm 10 13 mph 1010.5mb 57f 61f
9:54pm 11 15 mph 1010.6mb 57f 62f
9:48pm 13 15 mph 1010.5mb 57f 62f
9:42pm 13 16 mph 1010.5mb 57f 62f
9:36pm 11 14 mph 1010.5mb 57f 62f
9:30pm 13 15 mph 1010.5mb 57f 62f
9:24pm 13 16 mph 1010.5mb 57f 62f
9:18pm 13 16 mph 1010.4mb 57f 62f
9:12pm 13 14 mph 1010.4mb 57f 62f
9:06pm 10 14 mph 1010.4mb 57f 62f
9:00pm 10 13 mph 1010.4mb 57f 62f
8:54pm 9 11 mph 1010.4mb 57f 62f
8:48pm 9 13 mph 1010.4mb 57f 62f
8:42pm 10 14 mph 1010.2mb 57f 62f
8:36pm 10 15 mph 1010.2mb 57f 62f
8:30pm 13 15 mph 1010.1mb 57f 62f
8:24pm 11 14 mph 1010.1mb 57f 62f
8:18pm 7 9 mph 1010.3mb 57f 61f
8:12pm 7 9 mph 1010.2mb 57f 61f
8:06pm 7 9 mph 1010.1mb 57f 60f
8:00pm 9 13 mph 1010.2mb 57f 61f
7:54pm 13 15 mph 1010.1mb 57f 63f
7:48pm 8 10 mph 1010.2mb 57f 62f
7:42pm 8 11 mph 1010.2mb 57f 62f
7:36pm 8 9 mph 1010.2mb 57f 62f
7:30pm 7 8 mph 1010.2mb 57f 61f
7:24pm 5 7 mph 1010.1mb 57f 60f
7:18pm 6 8 mph 1010.1mb 57f 61f
7:12pm 6 8 mph 1010mb 57f 61f
7:06pm 7 9 mph 1009.9mb 57f 61f
7:00pm 7 9 mph 1009.9mb 57f 61f
6:54pm 7 10 mph 1009.8mb 57f 61f
6:48pm 9 11 mph 1009.8mb 57f 61f
6:42pm 9 11 mph 1009.8mb 57f 62f
6:36pm 10 13 mph 1009.8mb 57f 61f
6:30pm 9 11 mph 1009.8mb 57f 61f
6:24pm 10 11 mph 1009.8mb 57f 62f
6:18pm 10 13 mph 1009.8mb 57f 62f
6:12pm 10 14 mph 1009.7mb 57f 62f
6:06pm 13 15 mph 1009.6mb 57f 62f
6:00pm 13 15 mph 1009.6mb 57f 62f
5:54pm 11 14 mph 1009.7mb 57f 63f
5:48pm 11 14 mph 1009.8mb 57f 63f
5:42pm 11 14 mph 1009.7mb 57f 63f
5:36pm 11 14 mph 1009.6mb 57f 63f
5:30pm 11 13 mph 1009.6mb 57f 62f
5:24pm 11 13 mph 1009.7mb 57f 62f
5:18pm 11 13 mph 1009.7mb 57f 62f
5:12pm 10 13 mph 1009.8mb 57f 62f
5:06pm 9 11 mph 1009.8mb 57f 62f
5:00pm 9 13 mph 1009.9mb 57f 63f
4:54pm 11 15 mph 1009.9mb 57f 63f
4:48pm 10 13 mph 1009.9mb 56f 63f
4:42pm 9 10 mph 1010mb 56f 62f
4:36pm 8 10 mph 1010.1mb 56f 63f
4:30pm 7 8 mph 1010.1mb 56f 62f
4:24pm 6 8 mph 1010.2mb 56f 62f
4:18pm 6 8 mph 1010.2mb 56f 62f
4:12pm 6 7 mph 1010.2mb 56f 61f
4:06pm 6 7 mph 1010.2mb 56f 61f
4:00pm 6 7 mph 1010.3mb 56f 61f
3:54pm 6 7 mph 1010.3mb 56f 61f
3:48pm 7 8 mph 1010.4mb 56f 61f
3:42pm 7 9 mph 1010.4mb 56f 61f
3:36pm 9 10 mph 1010.4mb 56f 61f
3:30pm 9 10 mph 1010.5mb 56f 61f
3:24pm 9 11 mph 1010.5mb 56f 62f
3:18pm 8 10 mph 1010.6mb 56f 61f
3:12pm 9
mph
1010.7mb 56f 61f
3:06pm 7 8 mph 1010.8mb 56f 61f
3:00pm 7 8 mph 1010.9mb 56f 60f
2:54pm 8 9 mph 1011mb 56f 61f
2:48pm 9 11 mph 1011mb 56f 61f
2:42pm 10 11 mph 1011mb 56f 61f
2:36pm 11 15 mph 1011.1mb 56f 61f
2:30pm 14 16 mph 1011.2mb 56f 62f
2:24pm 13 14 mph 1011.4mb 56f 62f
2:18pm 11 13 mph 1011.6mb 56f 62f
2:12pm 9 10 mph 1011.8mb 56f 61f
2:06pm 8 10 mph 1011.9mb 56f 61f
2:00pm 8 10 mph 1011.9mb 56f 61f
1:54pm 8 9 mph 1012mb 56f 60f
1:48pm 7 8 mph 1012.2mb 56f 60f
1:42pm 8
mph
1012.4mb 56f 60f
1:36pm 7
mph
1012.5mb 56f 60f
1:30pm 6 7 mph 1012.7mb 56f 61f
1:24pm 6 8 mph 1012.8mb 56f 61f
1:18pm 7 9 mph 1013mb 55f 60f
1:12pm 8 10 mph 1013.2mb 55f 60f
1:06pm 10 13 mph 1013.2mb 55f 61f
1:00pm 11 13 mph 1013.4mb 55f 61f
12:54pm 11 13 mph 1013.4mb 55f 61f
12:48pm 11 13 mph 1013.5mb 55f 61f
12:42pm 11 14 mph 1013.7mb 55f 61f
12:36pm 11 13 mph 1013.8mb 55f 62f
12:30pm 9 10 mph 1013.9mb 55f 61f
12:24pm 9 10 mph 1014mb 55f 61f
12:18pm 9 10 mph 1014.1mb 55f 61f
12:12pm 8 9 mph 1014.3mb 55f 61f
12:06pm 6 7 mph 1014.5mb 55f 60f
12:00pm 6 7 mph 1014.6mb 55f 60f
11:54am 3 6 mph 1014.7mb 55f 60f
11:48am 5 6 mph 1014.7mb 55f 59f
11:42am 5 6 mph 1014.8mb 55f 60f
11:36am 6 8 mph 1014.9mb 55f 60f
11:30am 8 10 mph 1015.1mb 55f 62f
11:24am 9 11 mph 1015.2mb 55f 62f
11:18am 8 10 mph 1015.3mb 55f 61f
11:12am 7 9 mph 1015.4mb 55f 61f
11:06am 7 10 mph 1015.5mb 55f 61f
11:00am 8 10 mph 1015.5mb 55f 61f
10:54am 7 10 mph 1015.6mb 55f 61f
10:48am 8 10 mph 1015.6mb - -
10:42am 7 9 mph 1015.6mb 55f 60f
10:36am 8 10 mph 1015.6mb 55f 61f
10:30am 8 10 mph 1015.6mb 55f -
10:24am 6 8 mph 1015.6mb 55f -
10:18am 6 8 mph - - 64f
10:12am 5 7 mph - - 62f
10:06am 2 3 mph - - 62f
10:00am  -  mph 1015.8mb 55f 61f
9:54am  -  mph 1015.7mb 55f 60f
9:48am 5 6 mph - 55f 60f
9:42am 3 6 mph - 55f 60f
9:36am 3 7 mph - 55f 61f
9:30am 6 9 mph - 55f 64f
9:24am 7 9 mph - 55f 62f
9:18am  -  mph 1016mb 55f 60f
9:12am  -  mph 1015.9mb 55f 60f
9:06am  -  mph 1015.8mb 55f 61f
9:00am 6 8 mph - - 61f
8:54am 6 9 mph - - 61f
8:48am 6 7 mph - - -
8:42am 6 8 mph - - -
8:36am 7 8 mph - - -
8:30am  -  mph - - 59f
8:24am  -  mph - - 58f
8:18am 2 3 mph - 55f -
8:12am 3 7 mph - 55f -
8:06am 5 7 mph - 55f -
8:00am  -  mph 1015.4mb - 58f
7:54am  -  mph 1015.4mb - 58f
7:48am 2 6 mph - - 58f
7:42am 6 7 mph - - 58f
7:36am 3 7 mph - - 58f
7:30am  -  mph - 55f -
7:24am  -  mph - 55f -
7:18am 3
mph
1015.4mb - 58f
7:12am 3
mph
1015.4mb - 58f
7:06am 3
mph
1015.4mb - 58f
7:00am 2 3 mph - 55f -
6:54am  -  3 mph - 55f -
6:48am 1 2 mph - 55f -
6:42am  -  mph 1015.5mb 55f -
6:36am  -  mph 1015.5mb 55f -
6:30am  -  mph 1015.5mb - 57f
6:24am  -  mph 1015.5mb - 57f
6:18am  -  mph 1015.6mb - 57f
6:12am  -  mph 1015.6mb - 57f
6:06am  -  mph 1015.5mb - 57f
6:00am 3 7 mph 1015.4mb 55f 56f
5:54am 3 6 mph 1015.4mb 55f 56f
5:48am 5 6 mph 1015.4mb 55f 56f
5:42am 2 7 mph - 55f -
5:36am 6 8 mph - 55f -
5:30am 5 6 mph 1015.5mb 55f -
5:24am 2 7 mph 1015.5mb 55f -
5:18am 3 7 mph 1015.3mb 55f -
5:12am  -  mph 1015.2mb 55f 55f
5:06am  -  mph 1015.1mb 55f 55f
5:00am  -  mph 1015.1mb 55f 55f
4:54am  -  mph 1015.3mb 55f 55f
4:48am  -  mph 1015.4mb 55f 55f
4:42am 2 8 mph - - -
4:36am 3 8 mph - - -
4:30am  -  mph 1015.4mb 55f -
4:24am  -  mph 1015.4mb 55f -
4:18am 3 7 mph - 55f -
4:12am 3 7 mph - 55f 55f
4:06am 2 6 mph - 55f 55f
4:00am 1 8 mph 1015.5mb 55f -
3:54am 2 7 mph 1015.6mb 55f -
3:48am 1 7 mph 1015.6mb 55f -
3:42am  -  mph 1015.8mb 55f -
3:36am  -  mph 1015.8mb 55f -
3:30am 2 7 mph 1015.9mb - 54f
3:24am 2 14 mph 1016.1mb - 54f
3:18am  -  mph - - 54f
3:12am  -  mph - - 54f
3:06am  -  mph - - 54f
3:00am  -  mph 1016.4mb 55f 54f
2:54am  -  mph 1016.5mb 55f 54f
2:48am  -  mph 1016.7mb 55f 54f
2:42am 5 10 mph 1016.9mb - 54f
2:36am 8 11 mph 1017mb - 54f
2:30am 8 11 mph 1017.2mb - 54f
2:24am 7 10 mph 1017.3mb - 54f
2:18am 6 9 mph 1017.4mb - 55f
2:12am  -  mph - 55f 54f
2:06am  -  mph - 55f 54f
2:00am 6 8 mph 1017.9mb - 54f
1:54am 5 7 mph 1018.1mb - 54f
1:48am 5 7 mph 1018.3mb - 54f
1:42am 5 8 mph 1018.4mb 55f 54f
1:36am 5 6 mph 1018.5mb 55f 54f
1:30am 6 9 mph 1018.5mb - 54f
1:24am 5 8 mph 1018.6mb - 54f
1:18am 5 6 mph 1018.6mb - 54f
1:12am  -  mph - - 54f
1:06am  -  mph - - 54f
1:00am 6 7 mph - - -
12:54am 5 7 mph - - -
12:48am 5 7 mph - - -
12:24am 3 6 mph 1019.4mb - 55f
12:00am 5 7 mph - - 55f
Mon 03/02 11:54pm  -  mph - 55f 55f
11:48pm  -  mph - 55f 55f
11:42pm  -  mph - 55f 55f
11:36pm  -  mph - 55f 55f
11:30pm  -  mph 1019.9mb - -
11:24pm  -  mph 1019.9mb - -
11:18pm  -  mph 1019.9mb 55f -
11:12pm  -  mph 1020mb 55f 55f
11:06pm  -  mph 1020mb 55f 55f
11:00pm  -  mph 1020.1mb - -
10:54pm  -  mph 1020.2mb - -
10:48pm  -  mph 1020.2mb - -
10:42pm  -  mph - 55f 55f
10:36pm  -  mph - 55f 54f
10:18pm  -  mph 1020.2mb 55f 54f
10:12pm  -  mph 1020.2mb 55f 54f
10:06pm  -  mph 1020.2mb 55f 54f
10:00pm  -  mph 1020.2mb - 54f
9:54pm  -  mph 1020.2mb - 54f
9:48pm 5 9 mph 1020.2mb 55f 54f
9:42pm  -  mph - 55f -
9:36pm  -  mph - 55f -
9:30pm 6 10 mph 1020.3mb - 54f
9:24pm 6 10 mph 1020.2mb - 54f
9:18pm 6 11 mph 1020.2mb - 54f
9:12pm  -  mph - 55f -
9:06pm  -  mph - 55f -
9:00pm  -  mph 1020.2mb 55f 54f
8:54pm  -  mph 1020.2mb 55f 54f
8:48pm  -  mph 1020.3mb 55f 54f
8:42pm 6 9 mph - 55f -
8:36pm 5 9 mph - 55f -
8:30pm  -  mph - 55f -
8:24pm  -  mph - 55f -
8:18pm  -  mph - 55f -
8:12pm  -  mph - 55f -
8:06pm  -  mph - 55f -
8:00pm 6 8 mph 1020.4mb 55f 55f
7:54pm 3 9 mph 1020.3mb 55f 55f
7:48pm  -  mph - 55f -
7:42pm  -  mph - 55f 55f
7:36pm  -  mph - 55f 55f
7:30pm  -  mph - 55f 55f
7:24pm  -  mph - 55f 55f
7:18pm  -  mph 1020.3mb 55f 55f
7:12pm  -  mph 1020.2mb 55f 55f
7:06pm  -  mph 1020.2mb 55f 55f
7:00pm 2 6 mph 1020.3mb 55f -
6:54pm 1 7 mph 1020.3mb 55f -
6:48pm 2 6 mph - 55f -
6:42pm 5 8 mph - 55f -
6:36pm 5 8 mph - 55f -
6:30pm  -  mph 1020.3mb 55f -
6:24pm  -  mph 1020.3mb 55f -
6:18pm  -  mph 1020.2mb 55f -
6:12pm  -  mph 1020.3mb - 56f
6:06pm  -  mph 1020.3mb - 56f
6:00pm 6 9 mph - 55f -
5:54pm 2 9 mph - 55f -
5:48pm 7 11 mph - 55f -
5:42pm 7 10 mph - 55f -
5:36pm 6 9 mph - 55f -
5:30pm 7 11 mph - 55f 56f
5:24pm 7 11 mph - 55f 56f
5:18pm 8 11 mph 1020.4mb - -
5:12pm 9 11 mph 1020.4mb 55f 56f
5:06pm 6 11 mph 1020.3mb 55f 56f
5:00pm 8 13 mph 1020.4mb 55f 56f
4:54pm 7 9 mph 1020.5mb 55f 56f
4:48pm 3 8 mph 1020.7mb 55f 56f
4:42pm 7 9 mph 1020.7mb 55f 56f
4:36pm 6 9 mph 1020.8mb 55f 56f
4:30pm 5 13 mph 1020.7mb 55f 56f
4:24pm 7 14 mph 1020.6mb 55f 56f
4:18pm 7 11 mph 1020.6mb 55f 56f
4:12pm 6 10 mph 1020.7mb 55f 56f
4:06pm 7 11 mph 1020.8mb 55f 56f
4:00pm 6 9 mph - - -
3:54pm 7 10 mph 1020.8mb 55f 56f
3:48pm 7 10 mph 1020.9mb 55f 55f
3:42pm 6 9 mph 1021.1mb 55f 55f
3:36pm 8 11 mph 1021.1mb 55f 55f
3:30pm 7 11 mph 1021.2mb 55f 55f
3:24pm 7 10 mph 1021.2mb 55f 55f
3:18pm 6 10 mph 1021.2mb 55f 55f
3:12pm 3 9 mph 1021.3mb 55f 55f
3:06pm 7 11 mph 1021.2mb 55f 55f
3:00pm 7 10 mph 1021.3mb 55f 55f
2:54pm 6 9 mph 1021.5mb 55f 54f
2:48pm 3 8 mph - - -
2:42pm 2 7 mph 1021.7mb 55f 55f
2:36pm 2 8 mph 1021.8mb 55f 54f
2:30pm 5 8 mph 1022mb 55f 54f
2:24pm 1 6 mph 1022.2mb 55f 54f
2:18pm 2 8 mph 1022.3mb 55f 55f
2:12pm 3 9 mph 1022.3mb 55f 54f
2:06pm 3 9 mph 1022.5mb 55f 54f
2:00pm 3 8 mph 1022.6mb 55f 54f
1:54pm 6 9 mph 1022.8mb 55f 54f
1:48pm 7 10 mph 1023mb - -
1:42pm 7 10 mph 1023mb 55f 53f
1:36pm 7 10 mph 1023.1mb 55f 53f
1:30pm 6 10 mph 1023.1mb 55f 53f
1:24pm 7 13 mph 1023.2mb 55f 53f
1:18pm 3 11 mph 1023.3mb - -
1:12pm 9 11 mph 1023.4mb 55f 53f
1:06pm 6 10 mph 1023.6mb 55f 53f
1:00pm 5 11 mph 1023.7mb 55f 53f
12:54pm 7 10 mph 1023.8mb 55f 53f
12:48pm 3 9 mph 1024mb 55f 52f
12:42pm 5 10 mph 1024.2mb 55f 52f
12:36pm 6 9 mph 1024.3mb 55f 52f
12:30pm 2 9 mph 1024.4mb 55f 53f
12:24pm 6 9 mph 1024.5mb 55f 52f
12:18pm 6 8 mph 1024.6mb 55f 52f
12:12pm 2 6 mph 1024.6mb 55f 52f
12:06pm 1 9 mph 1024.7mb 55f 52f
12:00pm 3 9 mph 1024.9mb 55f 52f
11:54am 6 10 mph 1024.9mb 55f 52f
11:48am 3 9 mph 1025mb 55f 52f
11:42am 6 11 mph 1025.2mb 55f 51f
11:36am 7 9 mph 1025.3mb 55f 51f
11:30am 3 9 mph 1025.3mb 55f 51f
11:24am 6 11 mph 1025.4mb 55f 51f
11:12am 6 13 mph 1025.5mb 55f 51f
10:54am 9 15 mph 1025.5mb 55f 50f
10:42am 7 13 mph 1025.5mb 55f 50f
10:30am 8 13 mph 1025.5mb 55f 49f
10:24am 8 11 mph 1025.5mb 55f 49f
10:18am 7 13 mph 1025.4mb 55f 49f
10:12am 9 14 mph 1025.4mb 55f 49f
10:06am 10 14 mph 1025.3mb 55f 49f
9:54am 8 13 mph 1025.3mb 55f 49f
9:48am 7 14 mph 1025.3mb 55f 49f
9:42am 10 14 mph 1025.3mb 55f 48f
9:36am 10 15 mph 1025.2mb 55f 48f
9:30am 7 10 mph 1025.2mb 55f 48f
9:24am 10 15 mph 1025.2mb 55f 48f
9:18am 10 15 mph 1025.2mb 55f 48f
9:12am 9 16 mph 1025.2mb 55f 48f
9:06am 10 14 mph 1025mb 55f 48f
9:00am 9 13 mph 1025.1mb 55f 48f
8:54am 10 18 mph 1025mb 55f 48f
8:48am 11 16 mph 1025mb 55f 47f
8:42am 9 15 mph 1025mb 55f 47f
8:36am 7 14 mph 1025mb 55f 48f
8:30am 8 13 mph 1024.8mb - -
8:24am 6 11 mph 1024.9mb 55f 48f
8:18am 7 10 mph - - -
8:12am 7 10 mph 1024.6mb 55f 48f
8:06am 8 13 mph 1024.4mb 55f 47f
8:00am 6 10 mph 1024.4mb 55f 47f
7:54am 7 14 mph 1024.3mb 55f 47f
7:48am 7 15 mph 1024.2mb 55f 47f
7:42am 11 18 mph 1024mb 55f 47f
7:30am 9 15 mph 1023.9mb 55f 47f
7:24am 11 15 mph 1024mb 55f 47f
7:18am 9 13 mph 1024mb 55f 48f
7:06am 8 15 mph 1024mb 55f 48f
6:54am 10 14 mph 1023.9mb 55f 48f
6:42am 7 14 mph 1023.8mb 55f 48f
6:36am 9 13 mph 1023.7mb 55f 48f
6:30am 6 11 mph 1023.7mb 55f 49f
6:24am 7 15 mph 1023.6mb 55f 49f
6:18am 8 11 mph - - -
6:12am 8 14 mph 1023.5mb 55f 48f
6:06am 7 11 mph 1023.4mb 55f 49f
5:54am 9 14 mph 1023.3mb 55f 49f
5:42am 8 14 mph 1023.4mb 55f 49f
5:36am 7 14 mph 1023.3mb 55f 49f
5:24am 8 14 mph 1023.2mb 55f 48f
5:18am 8 14 mph 1023.1mb 55f 48f
5:12am 7 11 mph 1023.1mb 55f 49f
5:06am 6 13 mph 1023.2mb 55f 49f
5:00am 9 14 mph 1023.1mb 55f 48f
4:54am 7 13 mph 1023.1mb 55f 48f
4:48am 9 11 mph 1023.1mb 55f 48f
4:36am 8 14 mph 1023.1mb 55f 48f
4:24am 9 15 mph 1023.1mb 55f 48f
4:18am 11 15 mph 1023.2mb 55f 48f
4:12am 7 14 mph 1023.3mb 55f 48f
4:06am 9 14 mph 1023.3mb 55f 48f
4:00am 10 15 mph 1023.3mb 55f 48f
3:54am 9 14 mph 1023.4mb 55f 48f
3:48am 9 14 mph 1023.4mb 55f 48f
3:42am 8 11 mph 1023.4mb 55f 48f
3:36am 8 13 mph 1023.4mb 55f 48f
3:30am 9 13 mph 1023.4mb 55f 48f
3:24am 6 10 mph 1023.6mb 55f 48f
3:18am 8 14 mph 1023.4mb - -
3:12am 7 11 mph 1023.4mb 55f 48f
3:06am 6 8 mph 1023.4mb 55f 48f
3:00am 8 13 mph 1023.3mb 55f 48f
2:54am 6 13 mph 1023.3mb 55f 48f
2:48am 8 11 mph 1023.1mb 55f 48f
2:42am 8 14 mph 1023.2mb 55f 48f
2:36am 9 15 mph 1023.2mb 55f 48f
2:30am 9 15 mph 1023.3mb 55f 48f
2:24am 8 13 mph 1023.5mb 55f 48f
2:18am 7 13 mph 1023.5mb 55f 48f
2:12am 8 11 mph 1023.6mb 55f 48f
2:06am 7 11 mph 1023.5mb 55f 48f
2:00am 6 9 mph 1023.7mb 55f 48f
1:54am 8 14 mph 1023.7mb 55f 48f
1:48am 7 11 mph 1023.7mb 55f 48f
1:42am 7 13 mph 1023.6mb 55f 48f
1:36am 9 14 mph 1023.7mb 55f 48f
1:30am 7 14 mph 1023.7mb 55f 48f
1:24am 8 14 mph 1023.7mb 55f 48f
1:18am 9 14 mph 1023.8mb 55f -
1:12am 9 14 mph 1023.8mb 55f 48f
1:06am 9 14 mph 1023.8mb 55f 48f
1:00am 9 13 mph 1024mb 55f 48f
12:54am 7 13 mph 1024mb 55f 48f
12:48am 8 15 mph 1024mb - -
12:42am 7 13 mph 1024mb 55f 48f
12:18am 9 14 mph 1024.2mb 55f 49f
Sun 03/01 11:42pm 8 13 mph 1024.3mb 55f 49f
11:36pm 8 10 mph 1024.3mb 55f 49f
11:30pm 8 11 mph 1024.2mb 55f 49f
11:24pm 6 9 mph 1024.2mb 55f 50f
11:18pm 7 13 mph 1024.2mb 55f 49f
11:12pm 9 14 mph 1024.2mb 55f 49f
11:06pm 8 13 mph 1024.1mb 55f 50f
11:00pm 8 11 mph 1024.1mb 55f 50f
10:36pm 9 15 mph 1024mb 55f 50f
10:30pm 9 13 mph 1023.9mb 55f 50f
10:24pm 9 15 mph 1023.9mb 55f 50f
10:18pm 8 14 mph 1023.9mb 55f 51f
10:00pm 7 13 mph 1023.7mb 55f 51f
9:54pm 9 13 mph 1023.7mb 55f 51f
9:48pm 9 14 mph 1023.6mb 55f 51f
9:24pm 8 13 mph 1023.4mb - -
9:18pm 7 11 mph 1023.3mb 55f 51f
9:00pm 7 10 mph 1023.2mb 55f 52f
8:54pm 6 10 mph 1023mb 55f 52f
8:48pm 8 11 mph 1023mb 55f 52f
8:42pm 8 13 mph 1023mb 55f 52f
8:36pm 6 10 mph 1022.9mb 55f 52f
8:30pm 6 9 mph 1022.9mb 55f 53f
8:24pm 6 13 mph 1022.9mb 55f 52f
8:18pm 8 11 mph 1022.9mb 55f 53f
8:12pm 6 9 mph 1022.9mb 55f 53f
8:06pm 7 10 mph 1022.7mb 55f 53f
7:42pm 7 10 mph 1022.1mb 55f 53f
7:36pm 6 11 mph 1022mb 55f 53f
7:30pm 7 10 mph 1021.9mb 55f 53f
7:24pm 5 9 mph 1021.9mb 55f 53f
7:18pm 6 9 mph - - -
7:00pm 6 11 mph 1021.4mb 55f 54f
6:54pm 7 11 mph 1021.3mb 55f 54f
6:48pm 8 11 mph 1021.4mb 55f 54f
6:42pm 8 11 mph 1021.3mb 55f 54f
6:36pm 8 10 mph 1021.4mb 55f 54f
6:30pm 8 10 mph 1021.4mb 55f 54f
6:24pm 7 9 mph - - -
6:18pm 7 9 mph 1021.5mb 55f 54f
6:12pm 6 9 mph 1021.3mb 55f 54f
6:06pm 7 10 mph 1021.3mb 55f 54f
6:00pm 8 10 mph 1021.3mb 55f 55f
5:54pm 7 9 mph 1021.2mb 55f 55f
5:48pm 7 10 mph 1021.2mb 55f 55f
5:42pm 6 9 mph 1021.1mb 55f 55f
5:36pm 7 9 mph 1021.1mb 55f 55f
5:30pm 7 10 mph 1021mb 55f 55f
5:24pm 7 10 mph - - -
5:18pm 7 9 mph 1021.1mb 55f 55f
5:12pm 6 8 mph 1021mb 55f 55f
5:06pm 6 8 mph 1021mb 55f 55f
5:00pm 6 9 mph 1020.9mb 55f 55f
4:54pm 7 10 mph 1020.7mb 55f 55f
4:48pm 7 9 mph 1020.7mb 55f 55f
4:42pm 7 9 mph 1020.7mb 55f 55f
4:36pm 6 9 mph 1020.8mb 55f 55f
4:30pm 9 10 mph 1020.8mb 55f 55f
4:24pm 7 10 mph 1020.6mb 55f 56f
4:18pm 7 8 mph 1020.6mb 55f 56f
4:12pm 3 9 mph 1020.7mb 55f 56f
4:06pm 6 8 mph 1020.7mb 55f 56f
4:00pm 6 8 mph 1020.7mb 55f 56f
3:54pm 6 7 mph 1020.7mb 55f 56f
3:48pm 5 7 mph 1020.7mb 55f 56f
3:42pm 5 7 mph 1020.6mb 55f 56f
3:36pm 5 7 mph 1020.6mb 55f 56f
3:30pm 7 8 mph 1020.7mb 55f 56f
3:24pm 7 10 mph 1020.7mb 55f 56f
3:18pm 7 10 mph 1020.7mb 55f 56f
3:12pm 5 10 mph 1020.7mb 55f 56f
3:06pm 6 9 mph 1020.7mb 55f 56f
3:00pm 6 8 mph 1020.7mb 55f 55f
2:54pm 7 11 mph 1020.7mb 55f 55f
2:48pm 7 11 mph 1020.8mb 55f 55f
2:42pm 6 9 mph 1020.9mb 55f 54f
2:36pm 7 10 mph 1021mb 55f 54f
2:30pm 7 9 mph 1021mb 55f -
2:24pm 6 9 mph 1021mb 55f 54f
2:18pm 7 9 mph 1021.1mb 55f 54f
2:12pm 7 9 mph 1021.3mb 55f 54f
2:06pm 5 8 mph 1021.3mb 55f 54f
2:00pm 6 10 mph 1021.1mb 55f 54f
1:54pm 6 9 mph 1021.1mb 55f 54f
1:48pm 8 13 mph 1021.2mb 55f 54f
1:42pm 8 9 mph 1021.2mb 55f 54f
1:36pm 6 9 mph 1021.3mb 55f 54f
1:30pm 7 9 mph 1021.4mb 55f 54f
1:24pm 8 9 mph 1021.5mb 55f -
1:18pm 7 10 mph 1021.5mb 55f 54f
1:12pm 7 9 mph 1021.6mb 55f 54f
1:06pm 6 9 mph 1021.7mb 54f 54f
1:00pm 7 10 mph 1021.8mb 54f 53f
12:54pm 7 10 mph 1021.9mb 54f -
12:48pm 8 10 mph 1022mb 54f 53f
12:42pm 6 9 mph 1022.2mb 54f 53f
12:36pm 6 8 mph 1022.3mb 54f 53f
12:30pm 6 9 mph 1022.4mb 54f 53f
12:24pm 5 8 mph - - -
12:18pm 5 7 mph 1022.5mb 54f 53f
12:12pm 6 8 mph 1022.4mb 54f 53f
12:06pm 5 8 mph 1022.5mb 54f 53f
12:00pm 6 8 mph 1022.5mb 54f 53f
11:54am 6 8 mph 1022.4mb 54f 53f
11:48am 5 7 mph 1022.5mb 54f 53f
11:42am 5 7 mph 1022.6mb 54f 52f
11:36am 5 7 mph 1022.5mb 54f 52f
11:30am 6 7 mph 1022.6mb 54f 52f
11:24am 6 8 mph 1022.8mb 54f 52f
11:18am 5 7 mph 1022.7mb 54f 52f
11:12am 5 8 mph 1022.8mb 54f 52f
11:06am 5 8 mph 1022.8mb 54f 52f
11:00am 7 9 mph 1022.9mb 54f 51f
10:54am 7 10 mph 1023mb 54f 51f
10:48am 8 10 mph 1022.9mb 54f 51f
10:42am 8 10 mph 1023mb 54f 51f
10:36am 7 9 mph 1023mb 54f 51f
10:30am 7 10 mph 1023.1mb 54f 51f
10:24am 5 8 mph 1023.1mb 54f 51f
10:18am 6 7 mph 1023.1mb 54f 51f
10:12am 6 8 mph 1023mb 54f 51f
10:06am 5 8 mph 1022.8mb 54f 51f
10:00am 6 13 mph 1022.6mb 54f 51f
9:54am 6 10 mph 1022.6mb 54f 51f
9:48am 8 10 mph - - -
9:42am 6 9 mph 1022.6mb 54f 50f
9:36am 7 10 mph 1022.6mb 54f 50f
9:30am 7 10 mph 1022.5mb 54f 50f
9:24am 7 10 mph 1022.3mb 54f 50f
9:18am 7 11 mph 1022.2mb 54f 50f
9:12am 6 10 mph 1022mb 54f 50f
9:06am 6 11 mph 1021.8mb 54f 50f
9:00am 6 10 mph 1021.7mb 54f 50f
8:54am 8 14 mph 1021.6mb 54f 50f
8:48am 9 14 mph 1021.6mb 54f 50f
8:42am 9 11 mph 1021.6mb 54f 50f
8:36am 8 13 mph 1021.5mb 54f 50f
8:18am 6 9 mph 1021.4mb 54f 49f
8:12am 6 10 mph 1021.3mb 54f 49f
8:06am 7 9 mph 1021.2mb 54f 49f
8:00am 7 9 mph 1021.3mb 54f 49f
7:54am 6 8 mph 1021.3mb 54f 49f
7:48am 6 8 mph 1021.3mb 54f 49f
7:42am 6 9 mph 1021.3mb 54f 49f
7:36am 7 9 mph 1021.2mb 54f 49f
7:30am 7 13 mph 1020.9mb 54f 49f
7:24am 8 13 mph 1020.6mb 54f 49f
7:18am 7 15 mph 1020.6mb 54f -
7:00am 8 11 mph 1020.6mb 54f 50f
6:54am 6 9 mph 1020.6mb 54f 50f
6:48am 6 9 mph 1020.8mb 54f 50f
6:42am 8 10 mph 1020.6mb 54f 50f
6:36am 8 13 mph 1020.6mb 54f 50f
6:30am 9 14 mph 1020.5mb 54f 50f
6:24am 8 11 mph 1020.4mb 54f 50f
6:18am 8 14 mph 1020.4mb 54f 50f
6:12am 7 11 mph 1020.4mb 54f 50f
6:06am 7 13 mph 1020.4mb 54f 50f
6:00am 7 13 mph 1020.4mb 54f 50f
5:54am 7 13 mph 1020.3mb 54f 51f
5:48am 9 13 mph 1020.3mb 54f 51f
5:42am 7 13 mph 1020.2mb 54f 51f
5:36am 7 10 mph 1020.2mb 54f 51f
5:30am 8 10 mph 1020.1mb - -
5:24am 8 10 mph 1020.1mb 54f 51f
5:18am 7 13 mph 1020.2mb 54f 52f
5:12am 8 13 mph 1020mb 54f 52f
5:06am 6 13 mph 1020mb 54f 52f
5:00am 6 10 mph 1019.9mb 54f 53f
4:54am 8 11 mph 1019.9mb 54f 53f
4:48am 7 10 mph 1019.8mb 54f 53f
4:42am 6 13 mph 1019.7mb 54f 53f
4:36am 9 14 mph 1019.6mb 54f 53f
4:30am 8 11 mph 1019.5mb 54f 53f
4:24am 9 14 mph 1019.6mb 54f 53f
4:18am 8 13 mph 1019.6mb 54f -
4:12am 8 11 mph 1019.6mb 54f 53f
4:06am 7 10 mph 1019.5mb 54f 53f
4:00am 8 13 mph 1019.5mb 54f 53f
3:54am 7 11 mph 1019.5mb 54f 53f
3:48am 6 8 mph 1019.5mb 54f -
3:42am 7 10 mph 1019.5mb 54f 53f
3:36am 7 13 mph 1019.6mb 54f 53f
3:30am 7 11 mph 1019.6mb 54f 53f
3:24am 7 11 mph 1019.7mb 54f 53f
3:18am 8 13 mph 1019.8mb - -
3:12am 7 13 mph 1019.7mb 54f 53f
3:06am 7 11 mph 1019.7mb 54f 53f
3:00am 6 8 mph 1019.7mb 54f 53f
2:54am 6 14 mph 1019.8mb 54f 53f
2:48am 7 11 mph 1019.8mb 54f 53f
2:42am 6 11 mph 1019.8mb 54f 53f
2:36am 9 13 mph 1019.8mb 54f 53f
2:18am 8 11 mph 1020mb 54f 54f
2:12am 7 9 mph 1020.1mb 54f 54f
2:06am 8 11 mph 1020mb 54f 54f
2:00am 6 11 mph 1020mb 54f 54f
1:54am 7 11 mph 1020mb 54f 54f
1:48am 7 9 mph 1020.1mb 54f 54f
1:42am 8 13 mph 1020.1mb 54f 54f
1:36am 6 11 mph 1020.1mb 54f 54f
1:30am 8 14 mph 1020mb 54f 54f
1:24am 9 14 mph 1020mb 54f 54f
1:18am 9 13 mph 1020.1mb 54f 54f
1:12am 8 13 mph 1020.1mb 54f 54f
1:06am 8 14 mph 1020.2mb 54f 54f
1:00am 8 14 mph 1020.2mb 54f 54f
12:54am 11 16 mph 1020.1mb 54f 54f
12:48am 10 15 mph 1020.1mb 54f 54f
12:42am 9 14 mph 1020.2mb 54f 54f
12:36am 8 14 mph 1020.2mb 54f 54f
12:18am 10 15 mph 1020.4mb 54f 54f
12:12am 8 15 mph 1020.5mb 54f 54f
Sat 02/28 11:54pm 8 14 mph 1020.5mb 54f 55f
11:48pm 8 14 mph 1020.5mb 54f 55f
11:42pm 10 16 mph 1020.5mb 54f 55f
11:36pm 10 16 mph 1020.6mb 54f 55f
11:30pm 11 15 mph - - -
11:24pm 10 15 mph 1020.8mb 54f 55f
11:18pm 9 15 mph 1020.9mb 54f 55f
11:12pm 9 15 mph 1020.9mb 54f 55f
11:06pm 9 14 mph 1020.9mb 54f 55f
11:00pm 8 13 mph 1020.9mb 54f 55f
10:54pm 7 14 mph 1020.9mb 54f 55f
10:48pm 8 13 mph 1021mb 54f 55f
10:42pm 9 13 mph 1021mb 54f 55f
10:36pm 8 14 mph 1021mb 54f 55f
10:30pm 9 14 mph 1021mb 54f 55f
10:24pm 10 15 mph 1021mb 54f 55f
10:18pm 10 14 mph 1020.9mb 54f 55f
10:12pm 8 11 mph 1020.9mb 54f 55f
10:06pm 8 14 mph 1021mb 54f 55f
10:00pm 7 14 mph 1020.9mb 54f 55f
9:42pm 9 17 mph 1020.9mb 55f 55f
9:36pm 11 16 mph 1020.9mb 55f 56f
9:30pm 11 17 mph 1020.9mb 55f 56f
9:24pm 8 14 mph 1020.9mb 55f 56f
9:18pm 9 15 mph 1020.9mb 55f 56f
9:12pm 9 16 mph 1020.9mb 54f 56f
9:06pm 9 17 mph 1021mb 54f 56f